Flight Track Log - Related Links

Times and Time Zones

All times are in EDT time to prevent confusion due to time zone crossing. See the N319EE flight status page for this flight to view local times or setup timezone preferences in your user account.

Time Position Orientation Groundspeed Altitude Reporting Facility
EDT Latitude Longitude Course Direction KTS MPH feet Rate Location/Type
Mon 10:26:51 AM 43.7253 -70.3314 301° West 183 211 6,100  Level Boston Center
Mon 10:27:51 AM 43.7264 -70.3917 271° West 163 188 7,500 1,587 Climbing Boston Center
Mon 10:28:52 AM 43.7253 -70.4578 269° West 163 188 9,300 1,714 Climbing Boston Center
Mon 10:29:50 AM 43.7244 -70.5239 269° West 168 193 10,900 1,714 Climbing Boston Center
Mon 10:30:00 AM 43.6223 -70.8710 256° West  Level Estimated
Mon 10:30:51 AM 43.7256 -70.5900 271° West 178 205 12,700  Level Boston Center
Mon 10:31:00 AM 43.6092 -70.9631 259° West  Level FlightAware Approximate
Mon 10:31:51 AM 43.7222 -70.6531 266° West 178 205 14,200  Level Boston Center
Mon 10:32:52 AM 43.7192 -70.7194 266° West 173 199 15,700 1,328 Climbing Boston Center
Mon 10:33:53 AM 43.7158 -70.7797 266° West 173 199 16,900 1,169 Climbing Boston Center
Mon 10:34:50 AM 43.7125 -70.8403 266° West 166 191 18,000 974 Climbing Boston Center
Mon 10:35:50 AM 43.7092 -70.9036 266° West 166 191 18,800 793 Climbing Boston Center
Mon 10:36:51 AM 43.7039 -70.9611 263° West 166 191 19,600 600 Climbing Boston Center
Mon 10:37:50 AM 43.7025 -71.0358 269° West 172 198 20,000 202 Climbing Boston Center
Mon 10:38:50 AM 43.6972 -71.1164 265° West 200 230 20,000  Level Boston Center
Mon 10:39:51 AM 43.6919 -71.2025 265° West 216 249 20,000  Level Boston Center
Mon 10:40:52 AM 43.6867 -71.2889 265° West 222 255 20,000  Level Boston Center
Mon 10:41:50 AM 43.6792 -71.3692 263° West 222 255 20,000  Level Boston Center
Mon 10:42:51 AM 43.6758 -71.4611 267° West 222 255 20,000  Level Boston Center
Mon 10:43:51 AM 43.6703 -71.5503 265° West 222 255 20,000  Level Boston Center
Mon 10:44:52 AM 43.6647 -71.6336 265° West 222 255 20,000  Level Boston Center
Mon 10:45:50 AM 43.6611 -71.7197 267° West 222 255 20,000  Level Boston Center
Mon 10:46:50 AM 43.6553 -71.8058 265° West 228 262 20,000  Level Boston Center
Mon 10:47:50 AM 43.6494 -71.8919 265° West 228 262 20,000  Level Boston Center
Mon 10:48:51 AM 43.6436 -71.9811 265° West 233 268 20,000  Level Boston Center
Mon 10:49:51 AM 43.6378 -72.0642 264° West 233 268 20,000  Level Boston Center
Mon 10:50:51 AM 43.6317 -72.1503 264° West 233 268 20,000 -555 Level Boston Center
Mon 10:51:50 AM 43.6256 -72.2422 265° West 240 276 18,900 -1,008 Descending Boston Center
Mon 10:52:50 AM 43.6194 -72.3397 265° West 251 289 18,000 -446 Descending Boston Center
Mon 10:53:51 AM 43.6111 -72.4372 263° West 256 295 18,000  Level Boston Center
Mon 10:54:51 AM 43.6069 -72.5261 266° West 251 289 18,000  Level Boston Center
Mon 10:55:50 AM 43.6006 -72.6150 264° West 251 289 18,000 -50 Level Boston Center
Mon 10:56:52 AM 43.5942 -72.7039 264° West 246 283 17,900 -49 Descending Boston Center
Mon 10:57:52 AM 43.5878 -72.7928 264° West 236 272 17,900  Level Boston Center
Mon 10:58:50 AM 43.5811 -72.8786 264° West 236 272 17,900  Level Boston Center
Mon 10:59:51 AM 43.5747 -72.9644 264° West 236 272 17,900  Level Boston Center
Mon 11:00:51 AM 43.5658 -73.0361 260° West 236 272 17,900  Level Boston Center
Mon 11:01:50 AM 43.5592 -73.1219 264° West 236 272 17,900  Level Boston Center
Mon 11:02:52 AM 43.5522 -73.2106 264° West 236 272 17,900  Level Boston Center
Mon 11:03:52 AM 43.5475 -73.2994 266° West 236 272 17,900  Level Boston Center
Mon 11:04:53 AM 43.5386 -73.3853 262° West 236 272 17,900  Level Boston Center
Mon 11:05:52 AM 43.5314 -73.4767 264° West 236 272 17,900  Level Boston Center
Mon 11:06:50 AM 43.5244 -73.5625 264° West 236 272 17,900  Level Boston Center
Mon 11:07:51 AM 43.5172 -73.6483 263° West 236 272 17,900  Level Boston Center
Mon 11:08:50 AM 43.5103 -73.7311 263° West 236 272 17,900 -500 Level Boston Center
Mon 11:09:51 AM 43.5028 -73.8256 264° West 241 277 16,900 -836 Descending Boston Center
Mon 11:10:52 AM 43.4953 -73.9197 264° West 253 291 16,200 -393 Descending Boston Center
Mon 11:11:53 AM 43.4858 -74.0083 262° West 253 291 16,100 -51 Descending Boston Center
Mon 11:12:50 AM 43.4825 -74.0969 267° West 246 283 16,100 -51 Level Boston Center
Mon 11:13:50 AM 43.4728 -74.1881 262° West 231 266 16,000 -49 Descending Boston Center
Mon 11:14:52 AM 43.4653 -74.2739 263° West 231 266 16,000  Level Boston Center
Mon 11:15:53 AM 43.4597 -74.3567 265° West 226 260 16,000  Level Boston Center
Mon 11:16:50 AM 43.4519 -74.4422 263° West 226 260 16,000  Level Boston Center
Mon 11:17:51 AM 43.4442 -74.5275 263° West 231 266 16,000  Level Boston Center
Mon 11:18:51 AM 43.4364 -74.6133 263° West 231 266 16,000  Level Boston Center
Mon 11:19:52 AM 43.4283 -74.6986 263° West 231 266 16,000  Level Boston Center
Mon 11:20:52 AM 43.4206 -74.7842 263° West 231 266 16,000  Level Boston Center
Mon 11:21:50 AM 43.4144 -74.8697 264° West 236 272 16,000  Level Boston Center
Mon 11:22:51 AM 43.4064 -74.9522 262° West 236 272 16,000  Level Boston Center
Mon 11:23:52 AM 43.3983 -75.0378 263° West 236 272 16,000  Level Boston Center
Mon 11:24:52 AM 43.3903 -75.1203 262° West 236 272 16,000  Level Boston Center
Mon 11:25:52 AM 43.3864 -75.1914 266° West 231 266 16,000  Level Boston Center
Mon 11:26:50 AM 43.3756 -75.2881 261° West 231 266 16,000  Level Boston Center
Mon 11:27:51 AM 43.3675 -75.3592 261° West 231 266 16,000  Level Boston Center
Mon 11:28:51 AM 43.3614 -75.4389 264° West 220 253 16,000  Level Boston Center
Mon 11:29:51 AM 43.3531 -75.5156 262° West 215 247 16,000  Level Boston Center
Mon 11:30:52 AM 43.3469 -75.5922 264° West 215 247 16,000  Level Boston Center
Mon 11:31:52 AM 43.3386 -75.6661 261° West 215 247 16,000  Level Boston Center
Mon 11:32:52 AM 43.3303 -75.7400 261° West 209 241 16,000  Level Boston Center
Mon 11:35:05 AM 43.3122 -75.9025 261° West 190 219 16,000 -123 Level Cleveland Center
Mon 11:36:07 AM 43.3047 -75.9750 262° West 191 220 15,600 -677 Descending Cleveland Center
Mon 11:37:09 AM 43.2969 -76.0608 263° West 221 254 14,600 -878 Descending Cleveland Center
Mon 11:38:10 AM 43.2864 -76.1547 261° West 244 281 13,800 -634 Descending Cleveland Center
Mon 11:39:12 AM 43.2769 -76.2464 262° West 245 282 13,300 -387 Descending Cleveland Center
Mon 11:40:14 AM 43.2667 -76.3419 262° West 251 289 13,000 -581 Descending Cleveland Center
Mon 11:41:16 AM 43.2542 -76.4553 261° West 251 289 12,100 -829 Descending Cleveland Center
Mon 11:42:17 AM 43.2442 -76.5458 261° West 244 281 11,300 -537 Descending Cleveland Center
Mon 11:43:19 AM 43.2358 -76.6300 262° West 230 265 11,000 -145 Descending Cleveland Center
Mon 11:44:21 AM 43.2292 -76.7069 263° West 211 243 11,000  Level Cleveland Center
Mon 11:44:51 AM 43.2261 -76.7478 264° West 197 227 11,000  Level Cleveland Center
Mon 11:45:22 AM 43.2225 -76.7814 262° West 200 230 11,000  Level Cleveland Center
Mon 11:45:52 AM 43.2183 -76.8211 262° West 197 227 11,000  Level Cleveland Center
Mon 11:46:24 AM 43.2133 -76.8556 259° West 198 228 11,000  Level Cleveland Center
Mon 11:46:52 AM 43.2075 -76.9022 260° West 198 228 11,000 -290 Level Cleveland Center
Mon 11:47:26 AM 43.2086 -76.9311 273° West 199 229 10,700 -984 Descending Cleveland Center
Mon 11:47:53 AM 43.2192 -76.9864 285° West 241 277 10,000 -1,065 Descending Cleveland Center
Mon 11:48:28 AM 43.2228 -77.0189 279° West 228 262 9,600 -885 Descending Cleveland Center
Mon 11:48:54 AM 43.2292 -77.0700 280° West 221 254 9,100 -1,180 Descending Cleveland Center
Mon 11:49:29 AM 43.2339 -77.1097 279° West 222 255 8,400 -1,556 Descending Cleveland Center
Mon 11:49:48 AM 43.2400 -77.1453 283° West 215 247 7,700 -1,548 Descending Cleveland Center
Mon 11:50:31 AM 43.2450 -77.1892 279° West 215 247 6,800 -1,672 Descending Cleveland Center
Mon 11:50:49 AM 43.2483 -77.2231 278° West 204 235 6,000 -1,839 Descending Cleveland Center
Mon 11:51:33 AM 43.2483 -77.2619 270° West 202 232 4,900 -1,900 Descending Cleveland Center
Mon 11:51:49 AM 43.2469 -77.2950 267° West 190 219 4,100 -1,967 Descending Cleveland Center
Mon 11:52:34 AM 43.2469 -77.3494 270° West 193 222 2,900 -1,433 Descending Cleveland Center
Mon 11:52:56 AM 43.2467 -77.3733 269° West 192 221 2,500 -387 Descending Cleveland Center
Mon 11:53:36 AM 43.2456 -77.4203 268° West 189 217 2,500  Level Cleveland Center
Mon 11:53:51 AM 43.2481 -77.4378 281° West 184 212 2,500  Level Cleveland Center
Mon 11:54:38 AM 43.2483 -77.4864 270° West 179 206 2,500  Level Cleveland Center
Mon 11:54:51 AM 43.2497 -77.5019 277° West 167 192 2,500  Level Cleveland Center
Mon 11:55:39 AM 43.2472 -77.5486 266° West 169 194 2,500  Level Cleveland Center
Mon 11:55:52 AM 43.2386 -77.5658 236° Southwest 165 190 2,500  Level Cleveland Center
Mon 11:56:41 AM 43.2161 -77.5942 223° Southwest 165 190 2,500  Level Cleveland Center
Mon 11:56:53 AM 43.2053 -77.6064 219° Southwest 166 191 2,500 -583 Level Cleveland Center
Mon 11:57:53 AM 43.1739 -77.6328 212° Southwest 122 140 1,800 -643 Descending Cleveland Center
Mon 11:58:45 AM 43.1528 -77.6483 208° Southwest 138 159 1,300 -689 Descending Cleveland Center
Mon 11:58:54 AM 43.1450 -77.6569 219° Southwest 124 143 1,100 -689 Descending Cleveland Center
Mon 11:59:46 AM 43.1250 -77.6719 209° Southwest 128 147 600 -577 Descending Cleveland Center
Mon 12:01:00 PM 43.1167 -77.6667 236° Southwest  Level FlightAware Approximate

Login

Don't have an account? Register now (free) for customized features, flight alerts, and more!